sensor_id;sensor_type;location;lat;lon;timestamp;temperature;humidity
22299;DHT22;11317;51.072;17.036;2022-08-18T00:02:16;21.70;1.00
22299;DHT22;11317;51.072;17.036;2022-08-18T00:04:43;21.60;1.00
22299;DHT22;11317;51.072;17.036;2022-08-18T00:07:12;21.50;1.00
22299;DHT22;11317;51.072;17.036;2022-08-18T00:09:39;21.40;1.00
22299;DHT22;11317;51.072;17.036;2022-08-18T00:12:09;21.40;1.00
22299;DHT22;11317;51.072;17.036;2022-08-18T00:17:03;21.30;1.00
22299;DHT22;11317;51.072;17.036;2022-08-18T00:21:55;22.10;1.00
22299;DHT22;11317;51.072;17.036;2022-08-18T00:29:13;22.10;1.00
22299;DHT22;11317;51.072;17.036;2022-08-18T00:36:31;21.40;11.80
22299;DHT22;11317;51.072;17.036;2022-08-18T00:41:25;21.10;4.00
22299;DHT22;11317;51.072;17.036;2022-08-18T00:43:53;21.00;2.00
22299;DHT22;11317;51.072;17.036;2022-08-18T00:46:36;20.60;12.20
22299;DHT22;11317;51.072;17.036;2022-08-18T00:51:46;21.20;17.10
22299;DHT22;11317;51.072;17.036;2022-08-18T00:54:24;20.50;23.70
22299;DHT22;11317;51.072;17.036;2022-08-18T00:56:53;21.00;15.90
22299;DHT22;11317;51.072;17.036;2022-08-18T00:59:33;20.70;13.80
22299;DHT22;11317;51.072;17.036;2022-08-18T01:02:02;20.60;19.90
22299;DHT22;11317;51.072;17.036;2022-08-18T01:04:33;20.50;4.40
22299;DHT22;11317;51.072;17.036;2022-08-18T01:07:06;21.00;1.20
22299;DHT22;11317;51.072;17.036;2022-08-18T01:16:51;21.30;1.00
22299;DHT22;11317;51.072;17.036;2022-08-18T01:19:35;21.60;1.00
22299;DHT22;11317;51.072;17.036;2022-08-18T01:25:13;21.10;1.00
22299;DHT22;11317;51.072;17.036;2022-08-18T01:27:57;21.10;1.00
22299;DHT22;11317;51.072;17.036;2022-08-18T01:30:29;21.00;1.00
22299;DHT22;11317;51.072;17.036;2022-08-18T01:32:56;20.70;1.00
22299;DHT22;11317;51.072;17.036;2022-08-18T01:35:25;21.00;1.00
22299;DHT22;11317;51.072;17.036;2022-08-18T01:37:52;21.10;1.00
22299;DHT22;11317;51.072;17.036;2022-08-18T01:40:20;21.10;1.00
22299;DHT22;11317;51.072;17.036;2022-08-18T01:45:14;20.60;1.00
22299;DHT22;11317;51.072;17.036;2022-08-18T01:50:06;21.30;1.00
22299;DHT22;11317;51.072;17.036;2022-08-18T01:52:33;21.20;1.00
22299;DHT22;11317;51.072;17.036;2022-08-18T01:55:00;21.20;1.00
22299;DHT22;11317;51.072;17.036;2022-08-18T01:57:26;21.10;1.00
22299;DHT22;11317;51.072;17.036;2022-08-18T01:59:52;20.90;1.00
22299;DHT22;11317;51.072;17.036;2022-08-18T02:02:24;20.90;1.00
22299;DHT22;11317;51.072;17.036;2022-08-18T02:04:53;20.90;1.00
22299;DHT22;11317;51.072;17.036;2022-08-18T02:09:47;21.10;1.00
22299;DHT22;11317;51.072;17.036;2022-08-18T02:17:06;20.80;1.50
22299;DHT22;11317;51.072;17.036;2022-08-18T02:19:35;21.00;9.40
22299;DHT22;11317;51.072;17.036;2022-08-18T02:22:01;20.50;13.20
22299;DHT22;11317;51.072;17.036;2022-08-18T02:29:19;20.80;31.00
22299;DHT22;11317;51.072;17.036;2022-08-18T02:31:44;20.60;21.40
22299;DHT22;11317;51.072;17.036;2022-08-18T02:34:10;20.60;23.10
22299;DHT22;11317;51.072;17.036;2022-08-18T02:36:36;20.70;14.40
22299;DHT22;11317;51.072;17.036;2022-08-18T02:41:28;20.40;15.80
22299;DHT22;11317;51.072;17.036;2022-08-18T02:48:45;20.00;33.90
22299;DHT22;11317;51.072;17.036;2022-08-18T02:51:15;20.30;30.50
22299;DHT22;11317;51.072;17.036;2022-08-18T02:53:43;20.00;40.70
22299;DHT22;11317;51.072;17.036;2022-08-18T02:58:50;20.10;48.20
22299;DHT22;11317;51.072;17.036;2022-08-18T03:01:22;20.50;58.10
22299;DHT22;11317;51.072;17.036;2022-08-18T03:03:49;20.30;49.30
22299;DHT22;11317;51.072;17.036;2022-08-18T03:06:16;20.50;54.10
22299;DHT22;11317;51.072;17.036;2022-08-18T03:08:43;20.10;44.20
22299;DHT22;11317;51.072;17.036;2022-08-18T03:11:14;20.00;55.70
22299;DHT22;11317;51.072;17.036;2022-08-18T03:21:07;19.90;73.20
22299;DHT22;11317;51.072;17.036;2022-08-18T03:23:34;19.90;83.60
22299;DHT22;11317;51.072;17.036;2022-08-18T03:28:27;20.60;86.90
22299;DHT22;11317;51.072;17.036;2022-08-18T03:30:54;19.80;90.50
22299;DHT22;11317;51.072;17.036;2022-08-18T03:33:20;19.80;87.10
22299;DHT22;11317;51.072;17.036;2022-08-18T03:35:46;20.00;99.00
22299;DHT22;11317;51.072;17.036;2022-08-18T03:38:12;19.70;99.90
22299;DHT22;11317;51.072;17.036;2022-08-18T03:43:05;20.00;96.50
22299;DHT22;11317;51.072;17.036;2022-08-18T03:45:32;20.00;94.30
22299;DHT22;11317;51.072;17.036;2022-08-18T03:52:51;20.00;92.10
22299;DHT22;11317;51.072;17.036;2022-08-18T03:55:18;19.60;96.20
22299;DHT22;11317;51.072;17.036;2022-08-18T03:57:44;19.80;98.40
22299;DHT22;11317;51.072;17.036;2022-08-18T04:00:11;19.80;94.20
22299;DHT22;11317;51.072;17.036;2022-08-18T04:02:37;20.00;98.00
22299;DHT22;11317;51.072;17.036;2022-08-18T04:05:04;20.20;97.00
22299;DHT22;11317;51.072;17.036;2022-08-18T04:07:30;19.80;99.90
22299;DHT22;11317;51.072;17.036;2022-08-18T04:09:56;19.60;99.90
22299;DHT22;11317;51.072;17.036;2022-08-18T04:14:48;19.80;99.90
22299;DHT22;11317;51.072;17.036;2022-08-18T04:17:18;19.80;98.50
22299;DHT22;11317;51.072;17.036;2022-08-18T04:19:55;19.80;99.90
22299;DHT22;11317;51.072;17.036;2022-08-18T04:22:21;20.00;96.20
22299;DHT22;11317;51.072;17.036;2022-08-18T04:24:48;20.20;96.00
22299;DHT22;11317;51.072;17.036;2022-08-18T04:32:06;20.10;91.20
22299;DHT22;11317;51.072;17.036;2022-08-18T04:34:33;21.30;89.20
22299;DHT22;11317;51.072;17.036;2022-08-18T04:36:59;20.30;81.40
22299;DHT22;11317;51.072;17.036;2022-08-18T04:44:17;20.00;91.30
22299;DHT22;11317;51.072;17.036;2022-08-18T04:46:46;20.60;89.00
22299;DHT22;11317;51.072;17.036;2022-08-18T04:49:14;20.30;76.70
22299;DHT22;11317;51.072;17.036;2022-08-18T04:51:44;20.30;80.60
22299;DHT22;11317;51.072;17.036;2022-08-18T04:54:31;20.00;87.10
22299;DHT22;11317;51.072;17.036;2022-08-18T04:56:56;20.00;87.60
22299;DHT22;11317;51.072;17.036;2022-08-18T04:59:22;20.70;80.00
22299;DHT22;11317;51.072;17.036;2022-08-18T05:01:49;20.40;83.80
22299;DHT22;11317;51.072;17.036;2022-08-18T05:04:16;20.70;65.10
22299;DHT22;11317;51.072;17.036;2022-08-18T05:06:44;21.30;55.20
22299;DHT22;11317;51.072;17.036;2022-08-18T05:09:11;20.80;41.10
22299;DHT22;11317;51.072;17.036;2022-08-18T05:11:37;20.70;46.50
22299;DHT22;11317;51.072;17.036;2022-08-18T05:14:06;20.90;34.30
22299;DHT22;11317;51.072;17.036;2022-08-18T05:16:33;21.00;34.00
22299;DHT22;11317;51.072;17.036;2022-08-18T05:19:01;20.60;35.40
22299;DHT22;11317;51.072;17.036;2022-08-18T05:21:29;21.30;24.80
22299;DHT22;11317;51.072;17.036;2022-08-18T05:23:54;20.70;21.70
22299;DHT22;11317;51.072;17.036;2022-08-18T05:26:20;21.80;10.00
22299;DHT22;11317;51.072;17.036;2022-08-18T05:31:18;21.50;2.70
22299;DHT22;11317;51.072;17.036;2022-08-18T05:33:44;21.60;1.00
22299;DHT22;11317;51.072;17.036;2022-08-18T05:41:26;21.70;1.00
22299;DHT22;11317;51.072;17.036;2022-08-18T05:43:55;22.10;1.00
22299;DHT22;11317;51.072;17.036;2022-08-18T05:46:30;22.20;1.00
22299;DHT22;11317;51.072;17.036;2022-08-18T05:51:46;22.50;1.00
22299;DHT22;11317;51.072;17.036;2022-08-18T05:54:13;22.70;1.00
22299;DHT22;11317;51.072;17.036;2022-08-18T05:57:02;22.70;1.00
22299;DHT22;11317;51.072;17.036;2022-08-18T05:59:32;22.90;1.00
22299;DHT22;11317;51.072;17.036;2022-08-18T06:02:23;22.70;1.00
22299;DHT22;11317;51.072;17.036;2022-08-18T06:05:08;23.30;1.00
22299;DHT22;11317;51.072;17.036;2022-08-18T06:10:03;24.00;1.00
22299;DHT22;11317;51.072;17.036;2022-08-18T06:12:43;23.10;99.90
22299;DHT22;11317;51.072;17.036;2022-08-18T06:18:04;23.80;99.90
22299;DHT22;11317;51.072;17.036;2022-08-18T06:23:44;24.10;99.90
22299;DHT22;11317;51.072;17.036;2022-08-18T06:26:22;24.20;90.90
22299;DHT22;11317;51.072;17.036;2022-08-18T06:37:20;26.00;1.00
22299;DHT22;11317;51.072;17.036;2022-08-18T06:39:46;26.30;1.00
22299;DHT22;11317;51.072;17.036;2022-08-18T06:42:16;26.80;42.70
22299;DHT22;11317;51.072;17.036;2022-08-18T06:44:47;27.00;99.90
22299;DHT22;11317;51.072;17.036;2022-08-18T06:47:37;27.40;1.00
22299;DHT22;11317;51.072;17.036;2022-08-18T06:50:42;27.50;60.10
22299;DHT22;11317;51.072;17.036;2022-08-18T06:55:45;28.30;1.00
22299;DHT22;11317;51.072;17.036;2022-08-18T07:00:42;30.30;1.00
22299;DHT22;11317;51.072;17.036;2022-08-18T07:03:20;30.70;1.00
22299;DHT22;11317;51.072;17.036;2022-08-18T07:06:00;31.50;1.00
22299;DHT22;11317;51.072;17.036;2022-08-18T07:13:26;33.60;99.90
22299;DHT22;11317;51.072;17.036;2022-08-18T07:15:55;33.90;99.90
22299;DHT22;11317;51.072;17.036;2022-08-18T07:23:37;36.90;99.90
22299;DHT22;11317;51.072;17.036;2022-08-18T07:26:12;37.20;99.90
22299;DHT22;11317;51.072;17.036;2022-08-18T07:28:47;38.10;1.00
22299;DHT22;11317;51.072;17.036;2022-08-18T07:31:35;38.40;99.90
22299;DHT22;11317;51.072;17.036;2022-08-18T07:34:12;38.50;99.90
22299;DHT22;11317;51.072;17.036;2022-08-18T07:40:11;38.80;99.90
22299;DHT22;11317;51.072;17.036;2022-08-18T07:45:17;39.20;99.90
22299;DHT22;11317;51.072;17.036;2022-08-18T07:47:58;39.90;99.90
22299;DHT22;11317;51.072;17.036;2022-08-18T07:50:36;40.00;99.90
22299;DHT22;11317;51.072;17.036;2022-08-18T07:53:16;40.20;99.90
22299;DHT22;11317;51.072;17.036;2022-08-18T07:55:46;40.30;99.90
22299;DHT22;11317;51.072;17.036;2022-08-18T08:09:32;41.40;99.90
22299;DHT22;11317;51.072;17.036;2022-08-18T08:11:56;42.80;99.90
22299;DHT22;11317;51.072;17.036;2022-08-18T08:14:40;42.30;99.90
22299;DHT22;11317;51.072;17.036;2022-08-18T08:20:08;42.60;99.90
22299;DHT22;11317;51.072;17.036;2022-08-18T08:31:07;44.00;99.90
22299;DHT22;11317;51.072;17.036;2022-08-18T08:33:39;44.30;99.90
22299;DHT22;11317;51.072;17.036;2022-08-18T08:36:13;44.20;99.90
22299;DHT22;11317;51.072;17.036;2022-08-18T08:38:53;43.50;99.90
22299;DHT22;11317;51.072;17.036;2022-08-18T08:41:53;44.10;99.90
22299;DHT22;11317;51.072;17.036;2022-08-18T08:44:31;44.30;83.80
22299;DHT22;11317;51.072;17.036;2022-08-18T08:47:04;44.40;99.90
22299;DHT22;11317;51.072;17.036;2022-08-18T08:54:57;44.40;92.70
22299;DHT22;11317;51.072;17.036;2022-08-18T08:57:31;45.20;90.90
22299;DHT22;11317;51.072;17.036;2022-08-18T09:00:01;45.00;99.90
22299;DHT22;11317;51.072;17.036;2022-08-18T09:08:26;45.00;99.90
22299;DHT22;11317;51.072;17.036;2022-08-18T09:16:48;46.10;71.40
22299;DHT22;11317;51.072;17.036;2022-08-18T09:19:48;46.30;69.40
22299;DHT22;11317;51.072;17.036;2022-08-18T09:22:46;46.50;63.70
22299;DHT22;11317;51.072;17.036;2022-08-18T09:28:19;46.30;59.50
22299;DHT22;11317;51.072;17.036;2022-08-18T09:36:37;44.60;53.70
22299;DHT22;11317;51.072;17.036;2022-08-18T09:45:00;46.10;53.90
22299;DHT22;11317;51.072;17.036;2022-08-18T09:49:59;44.70;48.90
22299;DHT22;11317;51.072;17.036;2022-08-18T09:57:41;44.40;50.20
22299;DHT22;11317;51.072;17.036;2022-08-18T10:13:31;45.70;38.10
22299;DHT22;11317;51.072;17.036;2022-08-18T10:16:01;45.30;99.90
22299;DHT22;11317;51.072;17.036;2022-08-18T10:21:25;45.60;39.60
22299;DHT22;11317;51.072;17.036;2022-08-18T10:23:58;45.90;40.80
22299;DHT22;11317;51.072;17.036;2022-08-18T10:31:24;46.20;18.80
22299;DHT22;11317;51.072;17.036;2022-08-18T10:34:06;46.80;15.90
22299;DHT22;11317;51.072;17.036;2022-08-18T10:36:56;47.70;14.10
22299;DHT22;11317;51.072;17.036;2022-08-18T10:42:15;46.80;26.30
22299;DHT22;11317;51.072;17.036;2022-08-18T10:44:47;46.00;11.70
22299;DHT22;11317;51.072;17.036;2022-08-18T10:47:23;46.00;25.70
22299;DHT22;11317;51.072;17.036;2022-08-18T10:49:51;45.90;38.10
22299;DHT22;11317;51.072;17.036;2022-08-18T10:52:36;45.60;99.90
22299;DHT22;11317;51.072;17.036;2022-08-18T10:55:27;44.90;14.90
22299;DHT22;11317;51.072;17.036;2022-08-18T11:03:47;40.20;99.90
22299;DHT22;11317;51.072;17.036;2022-08-18T11:06:20;39.30;99.90
22299;DHT22;11317;51.072;17.036;2022-08-18T11:08:55;38.80;25.40
22299;DHT22;11317;51.072;17.036;2022-08-18T11:11:25;38.00;99.90
22299;DHT22;11317;51.072;17.036;2022-08-18T11:17:48;36.90;27.60
22299;DHT22;11317;51.072;17.036;2022-08-18T11:19:48;36.10;99.90
22299;DHT22;11317;51.072;17.036;2022-08-18T11:22:32;36.40;49.40
22299;DHT22;11317;51.072;17.036;2022-08-18T11:24:59;35.80;36.90
22299;DHT22;11317;51.072;17.036;2022-08-18T11:27:28;35.90;36.80
22299;DHT22;11317;51.072;17.036;2022-08-18T11:29:58;35.00;86.50
22299;DHT22;11317;51.072;17.036;2022-08-18T11:32:33;35.60;38.20
22299;DHT22;11317;51.072;17.036;2022-08-18T11:35:18;35.10;99.90
22299;DHT22;11317;51.072;17.036;2022-08-18T11:45:59;35.00;99.90
22299;DHT22;11317;51.072;17.036;2022-08-18T11:48:42;35.20;61.40
22299;DHT22;11317;51.072;17.036;2022-08-18T11:51:28;34.70;42.70
22299;DHT22;11317;51.072;17.036;2022-08-18T11:54:20;34.70;49.60
22299;DHT22;11317;51.072;17.036;2022-08-18T12:01:51;34.80;57.50
22299;DHT22;11317;51.072;17.036;2022-08-18T12:09:25;35.00;55.70
22299;DHT22;11317;51.072;17.036;2022-08-18T12:11:57;34.90;56.40
22299;DHT22;11317;51.072;17.036;2022-08-18T12:14:28;34.70;57.20
22299;DHT22;11317;51.072;17.036;2022-08-18T12:16:54;35.00;99.90
22299;DHT22;11317;51.072;17.036;2022-08-18T12:19:21;34.60;58.40
22299;DHT22;11317;51.072;17.036;2022-08-18T12:21:54;34.40;60.90
22299;DHT22;11317;51.072;17.036;2022-08-18T12:24:26;34.20;63.40
22299;DHT22;11317;51.072;17.036;2022-08-18T12:29:19;34.10;64.20
22299;DHT22;11317;51.072;17.036;2022-08-18T12:31:46;34.00;64.40
22299;DHT22;11317;51.072;17.036;2022-08-18T12:46:23;34.20;99.90
22299;DHT22;11317;51.072;17.036;2022-08-18T12:48:51;34.40;65.10
22299;DHT22;11317;51.072;17.036;2022-08-18T12:56:29;34.00;68.10
22299;DHT22;11317;51.072;17.036;2022-08-18T12:59:00;33.50;99.90
22299;DHT22;11317;51.072;17.036;2022-08-18T13:01:26;35.60;99.90
22299;DHT22;11317;51.072;17.036;2022-08-18T13:03:53;33.80;70.30
22299;DHT22;11317;51.072;17.036;2022-08-18T13:06:23;34.10;99.90
22299;DHT22;11317;51.072;17.036;2022-08-18T13:08:50;33.70;68.40
22299;DHT22;11317;51.072;17.036;2022-08-18T13:11:17;33.60;71.50
22299;DHT22;11317;51.072;17.036;2022-08-18T13:16:10;32.60;99.90
22299;DHT22;11317;51.072;17.036;2022-08-18T13:18:37;33.40;73.40
22299;DHT22;11317;51.072;17.036;2022-08-18T13:21:10;33.40;99.90
22299;DHT22;11317;51.072;17.036;2022-08-18T13:23:37;33.70;99.90
22299;DHT22;11317;51.072;17.036;2022-08-18T13:26:05;33.50;73.40
22299;DHT22;11317;51.072;17.036;2022-08-18T13:28:32;33.60;71.90
22299;DHT22;11317;51.072;17.036;2022-08-18T13:35:51;33.40;67.80
22299;DHT22;11317;51.072;17.036;2022-08-18T13:40:49;33.60;69.20
22299;DHT22;11317;51.072;17.036;2022-08-18T13:43:17;33.30;94.60
22299;DHT22;11317;51.072;17.036;2022-08-18T13:45:43;33.90;84.60
22299;DHT22;11317;51.072;17.036;2022-08-18T14:00:23;33.20;99.90
22299;DHT22;11317;51.072;17.036;2022-08-18T14:02:50;33.30;69.00
22299;DHT22;11317;51.072;17.036;2022-08-18T14:05:21;33.80;99.90
22299;DHT22;11317;51.072;17.036;2022-08-18T14:12:40;33.70;99.90
22299;DHT22;11317;51.072;17.036;2022-08-18T14:15:10;33.40;69.70
22299;DHT22;11317;51.072;17.036;2022-08-18T14:17:36;33.50;71.10
22299;DHT22;11317;51.072;17.036;2022-08-18T14:20:04;33.60;99.90
22299;DHT22;11317;51.072;17.036;2022-08-18T14:22:56;32.60;92.10
22299;DHT22;11317;51.072;17.036;2022-08-18T14:25:41;33.10;99.90
22299;DHT22;11317;51.072;17.036;2022-08-18T14:30:52;33.30;71.10
22299;DHT22;11317;51.072;17.036;2022-08-18T14:33:19;33.30;71.20
22299;DHT22;11317;51.072;17.036;2022-08-18T14:38:12;33.00;91.70
22299;DHT22;11317;51.072;17.036;2022-08-18T14:40:40;33.50;99.90
22299;DHT22;11317;51.072;17.036;2022-08-18T14:45:32;32.90;99.90
22299;DHT22;11317;51.072;17.036;2022-08-18T14:50:24;33.10;73.30
22299;DHT22;11317;51.072;17.036;2022-08-18T15:00:12;33.00;72.30
22299;DHT22;11317;51.072;17.036;2022-08-18T15:05:07;32.80;71.30
22299;DHT22;11317;51.072;17.036;2022-08-18T15:07:34;32.80;71.00
22299;DHT22;11317;51.072;17.036;2022-08-18T15:10:03;32.60;99.90
22299;DHT22;11317;51.072;17.036;2022-08-18T15:19:48;32.70;99.90
22299;DHT22;11317;51.072;17.036;2022-08-18T15:24:58;32.90;99.90
22299;DHT22;11317;51.072;17.036;2022-08-18T15:27:43;32.90;99.90
22299;DHT22;11317;51.072;17.036;2022-08-18T15:30:12;32.90;91.30
22299;DHT22;11317;51.072;17.036;2022-08-18T15:32:42;33.20;99.90
22299;DHT22;11317;51.072;17.036;2022-08-18T15:35:13;32.80;99.90
22299;DHT22;11317;51.072;17.036;2022-08-18T15:37:41;32.20;99.90
22299;DHT22;11317;51.072;17.036;2022-08-18T15:40:14;32.90;99.90
22299;DHT22;11317;51.072;17.036;2022-08-18T15:42:46;32.50;77.10
22299;DHT22;11317;51.072;17.036;2022-08-18T15:47:41;32.60;99.90
22299;DHT22;11317;51.072;17.036;2022-08-18T15:50:08;32.20;78.00
22299;DHT22;11317;51.072;17.036;2022-08-18T15:52:47;32.30;80.00
22299;DHT22;11317;51.072;17.036;2022-08-18T15:55:17;31.90;99.90
22299;DHT22;11317;51.072;17.036;2022-08-18T16:00:09;31.90;93.10
22299;DHT22;11317;51.072;17.036;2022-08-18T16:02:36;32.00;99.90
22299;DHT22;11317;51.072;17.036;2022-08-18T16:05:04;32.00;81.70
22299;DHT22;11317;51.072;17.036;2022-08-18T16:09:56;31.00;99.90
22299;DHT22;11317;51.072;17.036;2022-08-18T16:14:48;31.70;99.90
22299;DHT22;11317;51.072;17.036;2022-08-18T16:22:11;31.50;99.90
22299;DHT22;11317;51.072;17.036;2022-08-18T16:27:03;31.30;99.90
22299;DHT22;11317;51.072;17.036;2022-08-18T16:39:16;31.60;99.90
22299;DHT22;11317;51.072;17.036;2022-08-18T16:46:34;31.50;99.90
22299;DHT22;11317;51.072;17.036;2022-08-18T16:49:00;31.50;99.90
22299;DHT22;11317;51.072;17.036;2022-08-18T16:56:26;30.90;94.30
22299;DHT22;11317;51.072;17.036;2022-08-18T16:58:53;31.00;99.90
22299;DHT22;11317;51.072;17.036;2022-08-18T17:01:37;31.00;99.90
22299;DHT22;11317;51.072;17.036;2022-08-18T17:04:24;30.70;95.90
22299;DHT22;11317;51.072;17.036;2022-08-18T17:09:19;30.60;97.70
22299;DHT22;11317;51.072;17.036;2022-08-18T17:11:46;29.80;99.90
22299;DHT22;11317;51.072;17.036;2022-08-18T17:16:38;30.20;99.90
22299;DHT22;11317;51.072;17.036;2022-08-18T17:19:05;30.30;99.90
22299;DHT22;11317;51.072;17.036;2022-08-18T17:21:32;29.90;99.90
22299;DHT22;11317;51.072;17.036;2022-08-18T17:23:59;30.20;99.90
22299;DHT22;11317;51.072;17.036;2022-08-18T17:26:42;30.10;99.90
22299;DHT22;11317;51.072;17.036;2022-08-18T17:31:35;30.10;99.90
22299;DHT22;11317;51.072;17.036;2022-08-18T17:34:07;29.90;99.90
22299;DHT22;11317;51.072;17.036;2022-08-18T17:36:39;29.80;99.90
22299;DHT22;11317;51.072;17.036;2022-08-18T17:39:07;29.60;99.90
22299;DHT22;11317;51.072;17.036;2022-08-18T17:44:21;29.40;99.90
22299;DHT22;11317;51.072;17.036;2022-08-18T17:49:28;29.30;99.90
22299;DHT22;11317;51.072;17.036;2022-08-18T17:52:14;29.30;99.90
22299;DHT22;11317;51.072;17.036;2022-08-18T17:54:45;29.30;99.90
22299;DHT22;11317;51.072;17.036;2022-08-18T17:57:20;29.10;99.90
22299;DHT22;11317;51.072;17.036;2022-08-18T18:00:10;29.00;99.90
22299;DHT22;11317;51.072;17.036;2022-08-18T18:02:38;28.60;99.90
22299;DHT22;11317;51.072;17.036;2022-08-18T18:05:07;28.80;99.90
22299;DHT22;11317;51.072;17.036;2022-08-18T18:12:32;28.70;99.90
22299;DHT22;11317;51.072;17.036;2022-08-18T18:15:00;28.70;99.90
22299;DHT22;11317;51.072;17.036;2022-08-18T18:17:29;28.40;99.90
22299;DHT22;11317;51.072;17.036;2022-08-18T18:20:24;28.40;99.90
22299;DHT22;11317;51.072;17.036;2022-08-18T18:23:15;27.20;99.90
22299;DHT22;11317;51.072;17.036;2022-08-18T18:30:50;27.80;1.00
22299;DHT22;11317;51.072;17.036;2022-08-18T18:38:31;27.80;99.90
22299;DHT22;11317;51.072;17.036;2022-08-18T18:43:43;27.70;99.90
22299;DHT22;11317;51.072;17.036;2022-08-18T18:46:25;27.30;1.00
22299;DHT22;11317;51.072;17.036;2022-08-18T18:49:02;27.80;1.00
22299;DHT22;11317;51.072;17.036;2022-08-18T18:54:29;27.60;1.00
22299;DHT22;11317;51.072;17.036;2022-08-18T18:56:58;27.50;1.00
22299;DHT22;11317;51.072;17.036;2022-08-18T19:04:51;27.20;1.00
22299;DHT22;11317;51.072;17.036;2022-08-18T19:07:25;27.10;1.00
22299;DHT22;11317;51.072;17.036;2022-08-18T19:10:12;27.20;1.00
22299;DHT22;11317;51.072;17.036;2022-08-18T19:12:50;27.30;1.00
22299;DHT22;11317;51.072;17.036;2022-08-18T19:15:18;27.00;1.00
22299;DHT22;11317;51.072;17.036;2022-08-18T19:17:59;27.20;1.00
22299;DHT22;11317;51.072;17.036;2022-08-18T19:20:35;27.20;1.00
22299;DHT22;11317;51.072;17.036;2022-08-18T19:23:26;27.20;1.00
22299;DHT22;11317;51.072;17.036;2022-08-18T19:25:55;27.10;1.00
22299;DHT22;11317;51.072;17.036;2022-08-18T19:30:54;27.00;1.00
22299;DHT22;11317;51.072;17.036;2022-08-18T19:33:47;27.00;1.00
22299;DHT22;11317;51.072;17.036;2022-08-18T19:40:06;26.80;1.00
22299;DHT22;11317;51.072;17.036;2022-08-18T19:50:03;26.40;1.00
22299;DHT22;11317;51.072;17.036;2022-08-18T19:53:05;26.60;1.00
22299;DHT22;11317;51.072;17.036;2022-08-18T20:04:04;26.30;99.90
22299;DHT22;11317;51.072;17.036;2022-08-18T20:09:33;26.10;99.90
22299;DHT22;11317;51.072;17.036;2022-08-18T20:12:31;25.90;1.00
22299;DHT22;11317;51.072;17.036;2022-08-18T20:15:16;25.90;99.90
22299;DHT22;11317;51.072;17.036;2022-08-18T20:17:58;25.90;1.00
22299;DHT22;11317;51.072;17.036;2022-08-18T20:20:26;25.50;1.00
22299;DHT22;11317;51.072;17.036;2022-08-18T20:22:55;25.90;1.00
22299;DHT22;11317;51.072;17.036;2022-08-18T20:25:34;26.00;1.00
22299;DHT22;11317;51.072;17.036;2022-08-18T20:30:50;25.80;1.00
22299;DHT22;11317;51.072;17.036;2022-08-18T20:38:30;25.50;99.90
22299;DHT22;11317;51.072;17.036;2022-08-18T20:43:51;25.70;1.00
22299;DHT22;11317;51.072;17.036;2022-08-18T20:51:40;24.90;99.90
22299;DHT22;11317;51.072;17.036;2022-08-18T20:57:09;25.50;1.00
22299;DHT22;11317;51.072;17.036;2022-08-18T20:59:51;25.50;1.00
22299;DHT22;11317;51.072;17.036;2022-08-18T21:02:27;25.50;1.00
22299;DHT22;11317;51.072;17.036;2022-08-18T21:04:56;25.50;1.00
22299;DHT22;11317;51.072;17.036;2022-08-18T21:07:30;26.00;1.00
22299;DHT22;11317;51.072;17.036;2022-08-18T21:10:00;25.70;1.00
22299;DHT22;11317;51.072;17.036;2022-08-18T21:12:31;25.60;1.00
22299;DHT22;11317;51.072;17.036;2022-08-18T21:15:03;25.60;1.00
22299;DHT22;11317;51.072;17.036;2022-08-18T21:17:32;25.60;1.00
22299;DHT22;11317;51.072;17.036;2022-08-18T21:20:05;25.60;1.00
22299;DHT22;11317;51.072;17.036;2022-08-18T21:24:59;25.90;1.00
22299;DHT22;11317;51.072;17.036;2022-08-18T21:27:32;25.60;1.00
22299;DHT22;11317;51.072;17.036;2022-08-18T21:30:15;25.40;1.00
22299;DHT22;11317;51.072;17.036;2022-08-18T21:32:41;25.50;1.00
22299;DHT22;11317;51.072;17.036;2022-08-18T21:35:32;25.70;99.90
22299;DHT22;11317;51.072;17.036;2022-08-18T21:38:07;25.70;99.90
22299;DHT22;11317;51.072;17.036;2022-08-18T21:43:01;25.70;99.90
22299;DHT22;11317;51.072;17.036;2022-08-18T21:47:56;25.70;99.90
22299;DHT22;11317;51.072;17.036;2022-08-18T21:50:30;25.70;99.90
22299;DHT22;11317;51.072;17.036;2022-08-18T21:53:02;25.70;99.90
22299;DHT22;11317;51.072;17.036;2022-08-18T21:55:44;25.50;1.00
22299;DHT22;11317;51.072;17.036;2022-08-18T22:03:48;25.50;1.00
22299;DHT22;11317;51.072;17.036;2022-08-18T22:11:32;25.50;99.90
22299;DHT22;11317;51.072;17.036;2022-08-18T22:17:27;25.50;99.90
22299;DHT22;11317;51.072;17.036;2022-08-18T22:19:54;25.60;1.00
22299;DHT22;11317;51.072;17.036;2022-08-18T22:22:21;25.30;99.90
22299;DHT22;11317;51.072;17.036;2022-08-18T22:25:06;25.60;99.90
22299;DHT22;11317;51.072;17.036;2022-08-18T22:27:32;25.70;99.90
22299;DHT22;11317;51.072;17.036;2022-08-18T22:30:00;25.90;1.00
22299;DHT22;11317;51.072;17.036;2022-08-18T22:32:35;25.50;99.90
22299;DHT22;11317;51.072;17.036;2022-08-18T22:35:05;25.40;99.90
22299;DHT22;11317;51.072;17.036;2022-08-18T22:37:38;25.50;99.90
22299;DHT22;11317;51.072;17.036;2022-08-18T22:40:09;25.60;99.90
22299;DHT22;11317;51.072;17.036;2022-08-18T22:42:36;25.40;99.90
22299;DHT22;11317;51.072;17.036;2022-08-18T22:45:08;25.50;99.90
22299;DHT22;11317;51.072;17.036;2022-08-18T22:47:38;24.70;1.00
22299;DHT22;11317;51.072;17.036;2022-08-18T22:50:04;25.30;99.90
22299;DHT22;11317;51.072;17.036;2022-08-18T22:52:35;25.40;1.00
22299;DHT22;11317;51.072;17.036;2022-08-18T22:55:05;25.30;99.90
22299;DHT22;11317;51.072;17.036;2022-08-18T22:57:33;25.30;1.00
22299;DHT22;11317;51.072;17.036;2022-08-18T23:14:39;25.30;1.00
22299;DHT22;11317;51.072;17.036;2022-08-18T23:17:10;25.30;1.00
22299;DHT22;11317;51.072;17.036;2022-08-18T23:19:36;25.60;1.00
22299;DHT22;11317;51.072;17.036;2022-08-18T23:22:03;25.10;99.90
22299;DHT22;11317;51.072;17.036;2022-08-18T23:24:29;24.50;1.00
22299;DHT22;11317;51.072;17.036;2022-08-18T23:29:22;25.10;1.00
22299;DHT22;11317;51.072;17.036;2022-08-18T23:31:48;25.00;1.00
22299;DHT22;11317;51.072;17.036;2022-08-18T23:34:17;25.00;1.00
22299;DHT22;11317;51.072;17.036;2022-08-18T23:36:45;25.10;1.00
22299;DHT22;11317;51.072;17.036;2022-08-18T23:39:11;25.10;1.00
22299;DHT22;11317;51.072;17.036;2022-08-18T23:41:37;25.70;1.00
22299;DHT22;11317;51.072;17.036;2022-08-18T23:44:04;25.30;1.00
22299;DHT22;11317;51.072;17.036;2022-08-18T23:46:31;24.90;1.00
22299;DHT22;11317;51.072;17.036;2022-08-18T23:48:59;25.00;1.00
22299;DHT22;11317;51.072;17.036;2022-08-18T23:53:58;24.80;1.00